createdAt,value
2019-03-05T00:00:14.778Z,94.90
2019-03-05T00:02:42.566Z,94.80
2019-03-05T00:05:10.641Z,94.90
2019-03-05T00:07:38.342Z,94.90
2019-03-05T00:10:07.827Z,95.00
2019-03-05T00:12:35.525Z,94.70
2019-03-05T00:15:04.210Z,94.80
2019-03-05T00:17:31.940Z,94.80
2019-03-05T00:19:59.623Z,94.70
2019-03-05T00:22:27.356Z,94.60
2019-03-05T00:25:03.462Z,94.40
2019-03-05T00:27:35.055Z,94.50
2019-03-05T00:30:31.169Z,94.40
2019-03-05T00:33:13.028Z,94.80
2019-03-05T00:36:06.668Z,94.80
2019-03-05T00:39:18.058Z,94.80
2019-03-05T00:42:16.881Z,94.80
2019-03-05T00:45:27.977Z,95.30
2019-03-05T00:48:34.561Z,95.20
2019-03-05T00:51:27.655Z,95.00
2019-03-05T00:54:10.468Z,95.50
2019-03-05T00:56:49.322Z,95.70
2019-03-05T00:59:59.769Z,95.80
2019-03-05T01:02:50.062Z,96.40
2019-03-05T01:06:01.519Z,96.60
2019-03-05T01:08:31.873Z,96.70
2019-03-05T01:10:59.698Z,96.50
2019-03-05T01:13:27.530Z,96.20
2019-03-05T01:15:55.236Z,96.40
2019-03-05T01:18:22.978Z,97.10
2019-03-05T01:20:50.768Z,96.80
2019-03-05T01:23:19.686Z,96.90
2019-03-05T01:25:47.839Z,97.00
2019-03-05T01:28:15.553Z,96.10
2019-03-05T01:31:08.627Z,96.20
2019-03-05T01:33:48.793Z,96.50
2019-03-05T01:36:19.693Z,96.40
2019-03-05T01:38:54.789Z,96.50
2019-03-05T01:41:22.534Z,96.70
2019-03-05T01:43:50.220Z,96.20
2019-03-05T01:46:17.918Z,96.30
2019-03-05T01:48:45.652Z,96.20
2019-03-05T01:51:16.203Z,96.00
2019-03-05T01:53:43.929Z,96.30
2019-03-05T01:56:13.309Z,96.10
2019-03-05T01:58:41.314Z,95.70
2019-03-05T02:01:09.182Z,95.70
2019-03-05T02:03:37.147Z,95.80
2019-03-05T02:06:05.185Z,95.90
2019-03-05T02:08:33.195Z,95.90
2019-03-05T02:11:00.909Z,95.90
2019-03-05T02:13:28.634Z,96.10
2019-03-05T02:15:56.682Z,96.10
2019-03-05T02:18:26.142Z,96.00
2019-03-05T02:20:54.494Z,95.80
2019-03-05T02:23:47.225Z,95.90
2019-03-05T02:27:08.942Z,95.60
2019-03-05T02:30:04.332Z,95.90
2019-03-05T02:33:09.423Z,96.10
2019-03-05T02:36:05.445Z,96.20
2019-03-05T02:39:18.557Z,96.20
2019-03-05T02:42:13.062Z,96.00
2019-03-05T02:45:24.604Z,96.00
2019-03-05T02:48:28.346Z,96.10
2019-03-05T02:51:30.878Z,96.00
2019-03-05T02:54:36.171Z,96.60
2019-03-05T02:57:09.529Z,96.20
2019-03-05T02:59:37.443Z,96.30
2019-03-05T03:02:40.814Z,96.00
2019-03-05T03:05:27.008Z,96.00
2019-03-05T03:07:54.833Z,96.00
2019-03-05T03:10:24.184Z,96.40
2019-03-05T03:12:52.156Z,96.20
2019-03-05T03:15:19.900Z,96.10
2019-03-05T03:17:48.898Z,96.30
2019-03-05T03:20:17.939Z,96.40
2019-03-05T03:22:46.297Z,96.60
2019-03-05T03:25:19.129Z,96.60
2019-03-05T03:27:47.344Z,96.50
2019-03-05T03:30:16.864Z,96.80
2019-03-05T03:32:44.939Z,96.70
2019-03-05T03:35:13.749Z,96.70
2019-03-05T03:37:42.265Z,96.60
2019-03-05T03:40:18.666Z,96.70
2019-03-05T03:42:46.810Z,96.60
2019-03-05T03:45:17.167Z,96.70
2019-03-05T03:47:44.866Z,96.70
2019-03-05T03:50:13.087Z,96.70
2019-03-05T03:52:41.637Z,96.50
2019-03-05T03:55:10.493Z,96.50
2019-03-05T03:57:38.333Z,96.50
2019-03-05T04:00:08.534Z,96.30
2019-03-05T04:02:37.269Z,96.50
2019-03-05T04:05:05.829Z,96.50
2019-03-05T04:07:33.628Z,96.40
2019-03-05T04:10:01.362Z,96.50
2019-03-05T04:12:29.400Z,96.80
2019-03-05T04:14:57.587Z,96.20
2019-03-05T04:17:25.441Z,96.40
2019-03-05T04:19:55.158Z,96.50
2019-03-05T04:22:37.894Z,96.50
2019-03-05T04:25:19.481Z,96.40
2019-03-05T04:27:50.828Z,96.50
2019-03-05T04:30:22.452Z,97.00
2019-03-05T04:32:51.626Z,96.80
2019-03-05T04:35:38.438Z,96.90
2019-03-05T04:38:12.444Z,96.80
2019-03-05T04:40:44.034Z,96.80
2019-03-05T04:43:19.612Z,97.00
2019-03-05T04:46:06.205Z,97.30
2019-03-05T04:48:40.646Z,97.00
2019-03-05T04:51:39.143Z,97.10
2019-03-05T04:54:13.085Z,97.00
2019-03-05T04:56:47.707Z,97.10
2019-03-05T04:59:26.913Z,97.10
2019-03-05T05:01:59.258Z,97.00
2019-03-05T05:04:37.444Z,97.10
2019-03-05T05:07:17.156Z,97.20
2019-03-05T05:09:49.269Z,97.10
2019-03-05T05:12:22.433Z,97.30
2019-03-05T05:14:59.515Z,97.10
2019-03-05T05:17:41.196Z,97.20
2019-03-05T05:20:18.206Z,97.40
2019-03-05T05:22:57.706Z,97.40
2019-03-05T05:25:33.046Z,97.60
2019-03-05T05:28:00.770Z,97.60
2019-03-05T05:30:38.710Z,97.90
2019-03-05T05:33:06.439Z,97.60
2019-03-05T05:35:34.386Z,97.70
2019-03-05T05:38:02.136Z,97.90
2019-03-05T05:40:32.128Z,97.90
2019-03-05T05:43:00.074Z,97.80
2019-03-05T05:45:33.961Z,98.10
2019-03-05T05:48:01.663Z,98.00
2019-03-05T05:50:30.238Z,98.10
2019-03-05T05:52:58.721Z,98.80
2019-03-05T05:55:26.412Z,98.20
2019-03-05T05:57:54.141Z,98.30
2019-03-05T06:00:22.026Z,98.80
2019-03-05T06:02:49.721Z,98.60
2019-03-05T06:05:18.651Z,98.50
2019-03-05T06:07:46.323Z,98.50
2019-03-05T06:10:14.040Z,98.40
2019-03-05T06:12:42.765Z,98.40
2019-03-05T06:15:10.851Z,98.40
2019-03-05T06:17:38.580Z,98.70
2019-03-05T06:20:08.137Z,98.60
2019-03-05T06:22:36.204Z,98.60
2019-03-05T06:25:04.842Z,98.80
2019-03-05T06:27:32.542Z,98.60
2019-03-05T06:30:00.421Z,98.50
2019-03-05T06:32:28.215Z,98.60
2019-03-05T06:34:56.975Z,98.50
2019-03-05T06:37:24.671Z,98.60
2019-03-05T06:39:52.437Z,98.60
2019-03-05T06:42:20.089Z,98.70
2019-03-05T06:44:47.793Z,98.40
2019-03-05T06:47:15.469Z,98.50
2019-03-05T06:49:43.202Z,98.60
2019-03-05T06:52:11.941Z,98.50
2019-03-05T06:54:39.930Z,98.40
2019-03-05T06:57:07.781Z,98.50
2019-03-05T06:59:35.482Z,98.20
2019-03-05T07:02:03.206Z,97.50
2019-03-05T07:04:31.743Z,96.80
2019-03-05T07:06:59.449Z,95.90
2019-03-05T07:09:57.721Z,94.80
2019-03-05T07:12:35.673Z,94.30
2019-03-05T07:15:51.110Z,93.30
2019-03-05T07:18:23.724Z,92.80
2019-03-05T07:21:15.969Z,91.80
2019-03-05T07:24:09.642Z,90.80
2019-03-05T07:26:37.649Z,91.20
2019-03-05T07:29:05.630Z,89.70
2019-03-05T07:31:33.708Z,89.10
2019-03-05T07:34:04.842Z,87.60
2019-03-05T07:36:32.926Z,87.10
2019-03-05T07:39:01.053Z,87.20
2019-03-05T07:41:28.770Z,87.40
2019-03-05T07:43:56.817Z,86.50
2019-03-05T07:46:24.846Z,85.80
2019-03-05T07:48:52.606Z,85.30
2019-03-05T07:51:20.316Z,83.90
2019-03-05T07:53:48.503Z,85.90
2019-03-05T07:56:16.174Z,81.50
2019-03-05T07:58:44.223Z,81.00
2019-03-05T08:01:21.883Z,78.20
2019-03-05T08:03:41.495Z,78.20
2019-03-05T08:06:09.225Z,77.00
2019-03-05T08:09:13.425Z,74.40
2019-03-05T08:11:41.112Z,74.20
2019-03-05T08:14:59.629Z,71.40
2019-03-05T08:17:27.306Z,70.70
2019-03-05T08:19:55.188Z,68.40
2019-03-05T08:22:22.885Z,68.50
2019-03-05T08:24:50.922Z,66.50
2019-03-05T08:27:18.659Z,66.20
2019-03-05T08:29:46.856Z,63.50
2019-03-05T08:32:14.658Z,64.40
2019-03-05T08:34:42.386Z,65.90
2019-03-05T08:37:13.229Z,64.00
2019-03-05T08:39:40.393Z,63.20
2019-03-05T08:42:08.574Z,62.90
2019-03-05T08:44:36.255Z,60.30
2019-03-05T08:47:04.157Z,59.50
2019-03-05T08:49:31.870Z,60.30
2019-03-05T08:51:59.619Z,59.70
2019-03-05T08:54:28.022Z,60.20
2019-03-05T08:56:55.933Z,59.10
2019-03-05T08:59:23.966Z,58.40
2019-03-05T09:01:52.074Z,58.70
2019-03-05T09:04:20.097Z,58.10
2019-03-05T09:06:48.525Z,57.80
2019-03-05T09:09:16.895Z,58.80
2019-03-05T09:11:46.880Z,59.40
2019-03-05T09:14:15.087Z,61.20
2019-03-05T09:16:42.785Z,63.20
2019-03-05T09:19:10.480Z,61.50
2019-03-05T09:21:38.233Z,60.00
2019-03-05T09:24:06.383Z,58.80
2019-03-05T09:26:34.076Z,57.40
2019-03-05T09:29:01.776Z,55.10
2019-03-05T09:31:29.499Z,56.70
2019-03-05T09:33:57.858Z,56.50
2019-03-05T09:36:27.685Z,55.20
2019-03-05T09:38:55.534Z,56.30
2019-03-05T09:41:23.236Z,53.90
2019-03-05T09:43:50.953Z,53.10
2019-03-05T09:46:18.740Z,54.40
2019-03-05T09:48:46.423Z,56.40
2019-03-05T09:51:14.242Z,57.80
2019-03-05T09:53:41.961Z,58.30
2019-03-05T09:56:09.678Z,58.00
2019-03-05T09:58:37.408Z,57.30
2019-03-05T10:01:05.710Z,57.20
2019-03-05T10:03:33.421Z,57.70
2019-03-05T10:06:01.207Z,57.60
2019-03-05T10:08:32.768Z,59.30
2019-03-05T10:10:58.855Z,59.20
2019-03-05T10:13:26.637Z,60.30
2019-03-05T10:15:54.482Z,60.20
2019-03-05T10:18:22.186Z,59.20
2019-03-05T10:20:50.042Z,59.80
2019-03-05T10:23:17.841Z,59.60
2019-03-05T10:25:45.556Z,57.30
2019-03-05T10:28:28.295Z,57.30
2019-03-05T10:30:55.550Z,56.50
2019-03-05T10:33:23.445Z,55.50
2019-03-05T10:35:51.457Z,55.30
2019-03-05T10:38:19.285Z,52.70
2019-03-05T10:40:47.494Z,51.40
2019-03-05T10:43:15.241Z,51.00
2019-03-05T10:45:45.325Z,49.40
2019-03-05T10:48:14.386Z,49.70
2019-03-05T10:50:42.131Z,50.00
2019-03-05T10:53:12.066Z,49.40
2019-03-05T10:55:39.891Z,49.60
2019-03-05T10:58:07.866Z,49.50
2019-03-05T11:00:38.067Z,49.50
2019-03-05T11:03:05.888Z,49.60
2019-03-05T11:05:36.278Z,49.50
2019-03-05T11:08:04.788Z,49.70
2019-03-05T11:10:33.000Z,49.50
2019-03-05T11:13:00.903Z,48.20
2019-03-05T11:15:28.882Z,48.10
2019-03-05T11:17:56.582Z,47.50
2019-03-05T11:20:26.957Z,47.90
2019-03-05T11:22:54.951Z,48.30
2019-03-05T11:25:22.693Z,48.70
2019-03-05T11:27:50.443Z,49.60
2019-03-05T11:30:36.234Z,50.40
2019-03-05T11:33:08.313Z,51.20
2019-03-05T11:35:45.416Z,50.40
2019-03-05T11:38:29.449Z,50.30
2019-03-05T11:41:04.215Z,50.40
2019-03-05T11:43:36.609Z,50.20
2019-03-05T11:46:15.972Z,49.70
2019-03-05T11:48:49.536Z,49.80
2019-03-05T11:51:27.312Z,49.40
2019-03-05T11:54:04.850Z,49.50
2019-03-05T11:56:50.237Z,50.00
2019-03-05T11:59:27.663Z,50.80
2019-03-05T12:02:00.449Z,52.10
2019-03-05T12:04:49.453Z,50.90
2019-03-05T12:07:31.356Z,50.70
2019-03-05T12:10:09.199Z,50.60
2019-03-05T12:12:51.535Z,51.20
2019-03-05T12:15:23.387Z,52.10
2019-03-05T12:17:53.958Z,52.70
2019-03-05T12:20:23.874Z,53.10
2019-03-05T12:22:53.434Z,53.30
2019-03-05T12:25:23.664Z,52.90
2019-03-05T12:27:50.834Z,52.00
2019-03-05T12:30:20.483Z,51.70
2019-03-05T12:32:49.600Z,51.40
2019-03-05T12:35:19.795Z,51.50
2019-03-05T12:37:48.059Z,52.30
2019-03-05T12:40:17.180Z,52.50
2019-03-05T12:42:45.591Z,52.20
2019-03-05T12:45:14.431Z,52.00
2019-03-05T12:47:42.114Z,52.30
2019-03-05T12:50:20.816Z,52.90
2019-03-05T12:52:52.121Z,53.90
2019-03-05T12:55:20.510Z,53.50
2019-03-05T12:57:48.198Z,54.10
2019-03-05T13:00:19.037Z,54.30
2019-03-05T13:02:46.837Z,54.40
2019-03-05T13:05:17.815Z,54.70
2019-03-05T13:07:46.737Z,52.60
2019-03-05T13:10:19.151Z,53.10
2019-03-05T13:12:47.018Z,53.90
2019-03-05T13:15:17.647Z,54.60
2019-03-05T13:17:47.027Z,54.10
2019-03-05T13:20:15.649Z,54.40
2019-03-05T13:22:43.502Z,54.20
2019-03-05T13:25:15.027Z,54.60
2019-03-05T13:27:42.747Z,54.30
2019-03-05T13:30:13.451Z,54.50
2019-03-05T13:32:41.270Z,53.80
2019-03-05T13:35:10.797Z,54.40
2019-03-05T13:37:38.468Z,54.60
2019-03-05T13:40:07.567Z,53.80
2019-03-05T13:42:35.273Z,53.90
2019-03-05T13:45:05.332Z,54.10
2019-03-05T13:47:32.948Z,53.50
2019-03-05T13:50:11.857Z,53.80
2019-03-05T13:53:30.298Z,54.20
2019-03-05T13:56:51.709Z,53.90
2019-03-05T13:59:46.303Z,53.30
2019-03-05T14:02:20.818Z,53.10
2019-03-05T14:04:59.681Z,53.70
2019-03-05T14:08:22.933Z,53.20
2019-03-05T14:10:56.543Z,53.20
2019-03-05T14:13:28.679Z,53.70
2019-03-05T14:16:00.759Z,53.80
2019-03-05T14:18:31.139Z,53.50
2019-03-05T14:21:03.616Z,54.20
2019-03-05T14:23:33.926Z,54.10
2019-03-05T14:26:14.965Z,54.10
2019-03-05T14:28:51.262Z,54.60
2019-03-05T14:31:26.684Z,54.60
2019-03-05T14:34:03.331Z,54.40
2019-03-05T14:36:40.546Z,54.80
2019-03-05T14:39:51.441Z,54.40
2019-03-05T14:42:43.008Z,54.00
2019-03-05T14:45:28.170Z,54.20
2019-03-05T14:48:16.777Z,53.90
2019-03-05T14:50:50.463Z,53.60
2019-03-05T14:53:28.885Z,54.30
2019-03-05T14:56:20.658Z,54.70
2019-03-05T14:58:53.934Z,54.30
2019-03-05T15:01:26.312Z,54.80
2019-03-05T15:04:16.244Z,54.90
2019-03-05T15:06:52.282Z,55.20
2019-03-05T15:09:24.239Z,54.90
2019-03-05T15:12:22.212Z,55.40
2019-03-05T15:15:07.149Z,55.30
2019-03-05T15:17:48.876Z,54.80
2019-03-05T15:20:25.528Z,55.40
2019-03-05T15:23:00.318Z,55.10
2019-03-05T15:25:38.475Z,54.50
2019-03-05T15:28:12.200Z,54.50
2019-03-05T15:30:45.014Z,55.20
2019-03-05T15:33:36.886Z,55.20
2019-03-05T15:36:05.322Z,55.00
2019-03-05T15:38:44.627Z,55.40
2019-03-05T15:41:37.833Z,54.70
2019-03-05T15:44:15.243Z,55.60
2019-03-05T15:46:50.681Z,55.60
2019-03-05T15:49:29.301Z,55.10
2019-03-05T15:52:06.240Z,54.90
2019-03-05T15:54:41.066Z,55.00
2019-03-05T15:57:15.958Z,55.00
2019-03-05T16:00:06.952Z,55.00
2019-03-05T16:02:47.485Z,55.10
2019-03-05T16:05:26.195Z,55.90
2019-03-05T16:08:06.212Z,55.70
2019-03-05T16:10:36.866Z,54.90
2019-03-05T16:13:15.377Z,55.00
2019-03-05T16:15:51.443Z,55.30
2019-03-05T16:18:23.100Z,56.10
2019-03-05T16:21:07.018Z,55.90
2019-03-05T16:23:39.540Z,55.70
2019-03-05T16:26:16.603Z,56.80
2019-03-05T16:29:03.206Z,57.10
2019-03-05T16:32:08.123Z,56.80
2019-03-05T16:35:00.374Z,57.30
2019-03-05T16:37:57.742Z,57.30
2019-03-05T16:41:10.290Z,57.60
2019-03-05T16:44:09.931Z,57.80
2019-03-05T16:47:13.601Z,58.30
2019-03-05T16:50:10.435Z,59.50
2019-03-05T16:53:13.661Z,59.30
2019-03-05T16:56:29.311Z,61.00
2019-03-05T16:59:19.677Z,60.60
2019-03-05T17:02:03.145Z,61.80
2019-03-05T17:04:59.855Z,61.90
2019-03-05T17:08:03.565Z,63.20
2019-03-05T17:10:55.375Z,62.90
2019-03-05T17:13:23.074Z,63.80
2019-03-05T17:15:57.132Z,64.80
2019-03-05T17:18:25.201Z,65.10
2019-03-05T17:20:53.941Z,65.20
2019-03-05T17:23:21.595Z,65.40
2019-03-05T17:25:49.480Z,66.70
2019-03-05T17:28:31.110Z,68.00
2019-03-05T17:30:59.205Z,68.00
2019-03-05T17:33:30.465Z,68.20
2019-03-05T17:36:07.993Z,68.60
2019-03-05T17:38:35.858Z,69.00
2019-03-05T17:41:04.169Z,68.80
2019-03-05T17:43:32.619Z,69.70
2019-03-05T17:46:00.721Z,70.60
2019-03-05T17:48:28.452Z,70.80
2019-03-05T17:50:56.779Z,71.90
2019-03-05T17:53:24.661Z,72.70
2019-03-05T17:55:52.820Z,73.10
2019-03-05T17:58:21.020Z,73.50
2019-03-05T18:00:48.828Z,74.10
2019-03-05T18:03:16.828Z,74.40
2019-03-05T18:05:45.326Z,75.00
2019-03-05T18:08:13.415Z,75.70
2019-03-05T18:10:41.955Z,76.50
2019-03-05T18:13:11.002Z,77.30
2019-03-05T18:15:41.047Z,78.00
2019-03-05T18:18:08.892Z,78.10
2019-03-05T18:20:37.262Z,79.50
2019-03-05T18:23:05.533Z,80.50
2019-03-05T18:25:33.645Z,81.30
2019-03-05T18:28:04.173Z,82.60
2019-03-05T18:30:35.344Z,83.90
2019-03-05T18:33:03.953Z,85.20
2019-03-05T18:35:32.905Z,85.60
2019-03-05T18:38:01.693Z,86.10
2019-03-05T18:40:31.604Z,86.20
2019-03-05T18:43:01.185Z,86.20
2019-03-05T18:45:29.159Z,86.30
2019-03-05T18:47:57.854Z,86.80
2019-03-05T18:50:25.912Z,87.50
2019-03-05T18:52:54.192Z,87.70
2019-03-05T18:55:22.767Z,87.90
2019-03-05T18:57:51.430Z,88.40
2019-03-05T19:00:21.507Z,88.50
2019-03-05T19:02:50.863Z,89.70
2019-03-05T19:05:19.218Z,89.20
2019-03-05T19:07:47.593Z,89.20
2019-03-05T19:10:16.892Z,89.10
2019-03-05T19:12:44.978Z,89.70
2019-03-05T19:15:15.554Z,89.90
2019-03-05T19:17:44.169Z,90.10
2019-03-05T19:20:14.330Z,90.20
2019-03-05T19:22:42.766Z,90.30
2019-03-05T19:25:14.878Z,90.30
2019-03-05T19:27:42.893Z,90.50
2019-03-05T19:30:13.121Z,90.60
2019-03-05T19:32:41.158Z,91.10
2019-03-05T19:35:09.410Z,90.70
2019-03-05T19:37:37.985Z,91.50
2019-03-05T19:40:07.913Z,91.30
2019-03-05T19:42:36.262Z,91.40
2019-03-05T19:45:04.798Z,91.40
2019-03-05T19:47:33.075Z,91.60
2019-03-05T19:50:01.634Z,91.70
2019-03-05T19:52:29.770Z,92.00
2019-03-05T19:54:58.046Z,92.20
2019-03-05T19:57:26.402Z,92.00
2019-03-05T19:59:54.710Z,92.20
2019-03-05T20:02:22.914Z,92.40
2019-03-05T20:04:51.039Z,92.30
2019-03-05T20:07:19.465Z,92.30
2019-03-05T20:09:47.795Z,92.40
2019-03-05T20:12:15.882Z,92.50
2019-03-05T20:14:44.908Z,92.50
2019-03-05T20:17:13.073Z,92.30
2019-03-05T20:19:41.132Z,92.50
2019-03-05T20:22:09.740Z,92.70
2019-03-05T20:24:38.874Z,92.60
2019-03-05T20:27:15.685Z,92.60
2019-03-05T20:29:37.214Z,92.70
2019-03-05T20:32:05.697Z,92.70
2019-03-05T20:34:34.054Z,92.70
2019-03-05T20:37:02.810Z,92.60
2019-03-05T20:39:31.167Z,92.70
2019-03-05T20:41:59.547Z,92.50
2019-03-05T20:44:27.617Z,92.60
2019-03-05T20:46:56.296Z,92.50
2019-03-05T20:49:27.678Z,92.70
2019-03-05T20:51:56.596Z,92.70
2019-03-05T20:54:24.648Z,92.80
2019-03-05T20:56:52.846Z,92.70
2019-03-05T20:59:21.610Z,92.10
2019-03-05T21:01:50.246Z,92.20
2019-03-05T21:04:18.962Z,91.90
2019-03-05T21:06:47.313Z,92.00
2019-03-05T21:09:20.953Z,91.80
2019-03-05T21:11:48.944Z,91.50
2019-03-05T21:14:17.029Z,91.70
2019-03-05T21:16:46.446Z,92.00
2019-03-05T21:19:14.519Z,92.40
2019-03-05T21:21:42.455Z,92.90
2019-03-05T21:24:11.141Z,92.90
2019-03-05T21:26:39.824Z,93.20
2019-03-05T21:29:07.906Z,93.60
2019-03-05T21:31:36.099Z,93.60
2019-03-05T21:34:04.258Z,94.00
2019-03-05T21:36:32.422Z,94.30
2019-03-05T21:39:00.644Z,94.40
2019-03-05T21:41:28.559Z,94.60
2019-03-05T21:43:56.874Z,94.70
2019-03-05T21:46:24.828Z,94.60
2019-03-05T21:48:52.797Z,94.70
2019-03-05T21:51:21.163Z,94.70
2019-03-05T21:53:49.561Z,94.80
2019-03-05T21:56:17.631Z,95.00
2019-03-05T21:58:46.009Z,95.20
2019-03-05T22:01:14.357Z,95.10
2019-03-05T22:03:42.752Z,95.20
2019-03-05T22:06:10.825Z,95.30
2019-03-05T22:08:39.205Z,95.50
2019-03-05T22:11:07.561Z,95.50
2019-03-05T22:13:35.629Z,95.20
2019-03-05T22:16:03.882Z,95.50
2019-03-05T22:18:32.101Z,95.50
2019-03-05T22:21:00.502Z,95.50
2019-03-05T22:23:28.568Z,95.90
2019-03-05T22:25:57.218Z,95.80
2019-03-05T22:28:25.833Z,96.20
2019-03-05T22:30:54.091Z,96.10
2019-03-05T22:33:22.689Z,96.10
2019-03-05T22:35:51.043Z,96.20
2019-03-05T22:38:19.728Z,95.90
2019-03-05T22:40:48.444Z,95.90
2019-03-05T22:43:17.441Z,95.90
2019-03-05T22:45:45.495Z,95.90
2019-03-05T22:48:14.161Z,96.00
2019-03-05T22:50:42.233Z,95.70
2019-03-05T22:53:10.674Z,96.00
2019-03-05T22:55:38.686Z,95.60
2019-03-05T22:58:07.374Z,96.00
2019-03-05T23:00:57.754Z,95.90
2019-03-05T23:03:26.357Z,96.40
2019-03-05T23:05:54.678Z,95.80
2019-03-05T23:08:23.011Z,96.00
2019-03-05T23:10:51.366Z,95.70
2019-03-05T23:13:19.684Z,95.60
2019-03-05T23:15:47.826Z,95.70
2019-03-05T23:18:16.562Z,94.90
2019-03-05T23:20:45.210Z,94.80
2019-03-05T23:23:13.480Z,94.70
2019-03-05T23:25:41.969Z,94.30
2019-03-05T23:28:10.096Z,94.10
2019-03-05T23:30:38.973Z,94.10
2019-03-05T23:33:06.930Z,93.90
2019-03-05T23:35:35.455Z,94.00
2019-03-05T23:38:03.886Z,94.10
2019-03-05T23:40:32.570Z,93.80
2019-03-05T23:43:01.425Z,94.00
2019-03-05T23:45:29.324Z,93.80
2019-03-05T23:47:57.761Z,93.70
2019-03-05T23:50:27.909Z,93.80
2019-03-05T23:52:56.248Z,93.70
2019-03-05T23:55:24.866Z,93.70
2019-03-05T23:57:53.362Z,93.60
